sensor_id;sensor_type;location;lat;lon;timestamp;P1;durP1;ratioP1;P2;durP2;ratioP2
56810;SDS011;42691;47.234;27.494;2022-10-17T00:00:32;8.20;;;5.30;;
56810;SDS011;42691;47.234;27.494;2022-10-17T00:02:57;11.35;;;5.95;;
56810;SDS011;42691;47.234;27.494;2022-10-17T00:05:23;10.98;;;5.63;;
56810;SDS011;42691;47.234;27.494;2022-10-17T00:07:49;12.00;;;6.15;;
56810;SDS011;42691;47.234;27.494;2022-10-17T00:10:15;9.32;;;5.90;;
56810;SDS011;42691;47.234;27.494;2022-10-17T00:12:40;9.82;;;5.28;;
56810;SDS011;42691;47.234;27.494;2022-10-17T00:15:06;9.38;;;4.93;;
56810;SDS011;42691;47.234;27.494;2022-10-17T00:17:32;8.98;;;4.22;;
56810;SDS011;42691;47.234;27.494;2022-10-17T00:19:58;11.02;;;6.25;;
56810;SDS011;42691;47.234;27.494;2022-10-17T00:22:25;7.88;;;5.32;;
56810;SDS011;42691;47.234;27.494;2022-10-17T00:24:50;10.90;;;6.63;;
56810;SDS011;42691;47.234;27.494;2022-10-17T00:27:16;22.70;;;6.53;;
56810;SDS011;42691;47.234;27.494;2022-10-17T00:29:41;10.15;;;6.38;;
56810;SDS011;42691;47.234;27.494;2022-10-17T00:32:07;11.38;;;6.40;;
56810;SDS011;42691;47.234;27.494;2022-10-17T00:34:32;8.65;;;6.05;;
56810;SDS011;42691;47.234;27.494;2022-10-17T00:36:58;9.20;;;5.45;;
56810;SDS011;42691;47.234;27.494;2022-10-17T00:39:23;7.80;;;5.75;;
56810;SDS011;42691;47.234;27.494;2022-10-17T00:41:49;6.30;;;4.07;;
56810;SDS011;42691;47.234;27.494;2022-10-17T00:46:55;10.80;;;6.10;;
56810;SDS011;42691;47.234;27.494;2022-10-17T00:49:22;10.27;;;5.03;;
56810;SDS011;42691;47.234;27.494;2022-10-17T00:51:53;7.10;;;4.63;;
56810;SDS011;42691;47.234;27.494;2022-10-17T00:54:22;9.73;;;5.40;;
56810;SDS011;42691;47.234;27.494;2022-10-17T00:56:51;8.52;;;6.03;;
56810;SDS011;42691;47.234;27.494;2022-10-17T00:59:17;9.38;;;4.53;;
56810;SDS011;42691;47.234;27.494;2022-10-17T01:02:05;9.35;;;5.55;;
56810;SDS011;42691;47.234;27.494;2022-10-17T01:04:35;10.70;;;5.32;;
56810;SDS011;42691;47.234;27.494;2022-10-17T01:07:01;4.78;;;3.80;;
56810;SDS011;42691;47.234;27.494;2022-10-17T01:09:27;6.35;;;4.55;;
56810;SDS011;42691;47.234;27.494;2022-10-17T01:20:59;8.35;;;4.70;;
56810;SDS011;42691;47.234;27.494;2022-10-17T01:35:21;7.57;;;4.15;;
56810;SDS011;42691;47.234;27.494;2022-10-17T01:43:12;8.02;;;4.05;;
56810;SDS011;42691;47.234;27.494;2022-10-17T01:45:52;10.05;;;5.90;;
56810;SDS011;42691;47.234;27.494;2022-10-17T01:48:24;14.50;;;4.85;;
56810;SDS011;42691;47.234;27.494;2022-10-17T01:51:04;5.72;;;3.85;;
56810;SDS011;42691;47.234;27.494;2022-10-17T01:53:40;7.50;;;4.55;;
56810;SDS011;42691;47.234;27.494;2022-10-17T01:56:10;10.98;;;5.55;;
56810;SDS011;42691;47.234;27.494;2022-10-17T01:58:40;7.28;;;3.92;;
56810;SDS011;42691;47.234;27.494;2022-10-17T02:01:11;4.55;;;3.50;;
56810;SDS011;42691;47.234;27.494;2022-10-17T02:03:37;6.80;;;4.93;;
56810;SDS011;42691;47.234;27.494;2022-10-17T02:06:06;7.47;;;5.47;;
56810;SDS011;42691;47.234;27.494;2022-10-17T02:08:47;7.68;;;4.28;;
56810;SDS011;42691;47.234;27.494;2022-10-17T02:11:18;9.95;;;4.60;;
56810;SDS011;42691;47.234;27.494;2022-10-17T02:22:19;18.65;;;4.85;;
56810;SDS011;42691;47.234;27.494;2022-10-17T02:25:17;8.25;;;4.45;;
56810;SDS011;42691;47.234;27.494;2022-10-17T02:27:53;10.15;;;5.53;;
56810;SDS011;42691;47.234;27.494;2022-10-17T02:30:33;7.72;;;5.03;;
56810;SDS011;42691;47.234;27.494;2022-10-17T02:35:39;5.63;;;4.03;;
56810;SDS011;42691;47.234;27.494;2022-10-17T02:38:07;5.68;;;3.72;;
56810;SDS011;42691;47.234;27.494;2022-10-17T02:40:34;8.90;;;5.35;;
56810;SDS011;42691;47.234;27.494;2022-10-17T02:43:01;10.32;;;4.03;;
56810;SDS011;42691;47.234;27.494;2022-10-17T02:45:27;8.80;;;4.00;;
56810;SDS011;42691;47.234;27.494;2022-10-17T02:50:26;6.10;;;3.33;;
56810;SDS011;42691;47.234;27.494;2022-10-17T02:52:58;7.22;;;4.63;;
56810;SDS011;42691;47.234;27.494;2022-10-17T02:55:30;7.70;;;4.13;;
56810;SDS011;42691;47.234;27.494;2022-10-17T02:58:02;7.25;;;4.10;;
56810;SDS011;42691;47.234;27.494;2022-10-17T03:00:32;6.90;;;3.95;;
56810;SDS011;42691;47.234;27.494;2022-10-17T03:02:59;15.95;;;6.68;;
56810;SDS011;42691;47.234;27.494;2022-10-17T03:05:25;12.45;;;5.60;;
56810;SDS011;42691;47.234;27.494;2022-10-17T03:07:53;20.48;;;4.72;;
56810;SDS011;42691;47.234;27.494;2022-10-17T03:10:19;6.00;;;3.70;;
56810;SDS011;42691;47.234;27.494;2022-10-17T03:12:44;14.32;;;4.68;;
56810;SDS011;42691;47.234;27.494;2022-10-17T03:15:10;9.80;;;4.63;;
56810;SDS011;42691;47.234;27.494;2022-10-17T03:17:36;9.63;;;4.72;;
56810;SDS011;42691;47.234;27.494;2022-10-17T03:20:03;9.18;;;3.78;;
56810;SDS011;42691;47.234;27.494;2022-10-17T03:22:30;6.68;;;3.53;;
56810;SDS011;42691;47.234;27.494;2022-10-17T03:24:56;7.35;;;4.47;;
56810;SDS011;42691;47.234;27.494;2022-10-17T03:27:22;8.95;;;3.95;;
56810;SDS011;42691;47.234;27.494;2022-10-17T03:29:48;28.17;;;10.45;;
56810;SDS011;42691;47.234;27.494;2022-10-17T03:32:14;12.05;;;5.82;;
56810;SDS011;42691;47.234;27.494;2022-10-17T03:34:39;11.45;;;5.15;;
56810;SDS011;42691;47.234;27.494;2022-10-17T03:37:04;7.70;;;4.75;;
56810;SDS011;42691;47.234;27.494;2022-10-17T03:39:30;4.60;;;2.95;;
56810;SDS011;42691;47.234;27.494;2022-10-17T03:41:56;7.13;;;4.53;;
56810;SDS011;42691;47.234;27.494;2022-10-17T03:44:21;9.80;;;4.13;;
56810;SDS011;42691;47.234;27.494;2022-10-17T03:46:47;5.68;;;3.80;;
56810;SDS011;42691;47.234;27.494;2022-10-17T03:49:12;7.82;;;3.47;;
56810;SDS011;42691;47.234;27.494;2022-10-17T03:51:37;11.18;;;5.30;;
56810;SDS011;42691;47.234;27.494;2022-10-17T03:54:03;18.88;;;5.63;;
56810;SDS011;42691;47.234;27.494;2022-10-17T03:56:28;7.90;;;4.05;;
56810;SDS011;42691;47.234;27.494;2022-10-17T03:58:54;6.88;;;4.38;;
56810;SDS011;42691;47.234;27.494;2022-10-17T04:01:20;12.63;;;5.90;;
56810;SDS011;42691;47.234;27.494;2022-10-17T04:03:49;12.00;;;5.93;;
56810;SDS011;42691;47.234;27.494;2022-10-17T04:06:16;28.08;;;10.10;;
56810;SDS011;42691;47.234;27.494;2022-10-17T04:08:41;14.13;;;5.60;;
56810;SDS011;42691;47.234;27.494;2022-10-17T04:11:07;13.63;;;6.15;;
56810;SDS011;42691;47.234;27.494;2022-10-17T04:13:34;11.20;;;5.55;;
56810;SDS011;42691;47.234;27.494;2022-10-17T04:16:05;11.20;;;7.53;;
56810;SDS011;42691;47.234;27.494;2022-10-17T04:18:32;13.57;;;4.57;;
56810;SDS011;42691;47.234;27.494;2022-10-17T04:21:00;12.90;;;5.20;;
56810;SDS011;42691;47.234;27.494;2022-10-17T04:23:28;15.63;;;6.72;;
56810;SDS011;42691;47.234;27.494;2022-10-17T04:25:54;10.18;;;5.90;;
56810;SDS011;42691;47.234;27.494;2022-10-17T04:28:21;10.27;;;5.22;;
56810;SDS011;42691;47.234;27.494;2022-10-17T04:30:46;8.27;;;5.30;;
56810;SDS011;42691;47.234;27.494;2022-10-17T04:33:12;15.80;;;6.13;;
56810;SDS011;42691;47.234;27.494;2022-10-17T04:35:37;47.85;;;9.82;;
56810;SDS011;42691;47.234;27.494;2022-10-17T04:38:03;26.70;;;7.18;;
56810;SDS011;42691;47.234;27.494;2022-10-17T04:40:28;15.43;;;6.78;;
56810;SDS011;42691;47.234;27.494;2022-10-17T04:42:54;11.27;;;5.10;;
56810;SDS011;42691;47.234;27.494;2022-10-17T04:45:19;8.48;;;5.20;;
56810;SDS011;42691;47.234;27.494;2022-10-17T04:47:44;9.50;;;5.32;;
56810;SDS011;42691;47.234;27.494;2022-10-17T04:50:10;15.82;;;6.25;;
56810;SDS011;42691;47.234;27.494;2022-10-17T04:52:35;63.42;;;13.30;;
56810;SDS011;42691;47.234;27.494;2022-10-17T04:55:02;32.80;;;7.63;;
56810;SDS011;42691;47.234;27.494;2022-10-17T04:57:29;20.92;;;6.70;;
56810;SDS011;42691;47.234;27.494;2022-10-17T04:59:54;16.15;;;6.57;;
56810;SDS011;42691;47.234;27.494;2022-10-17T05:02:20;17.58;;;7.35;;
56810;SDS011;42691;47.234;27.494;2022-10-17T05:04:45;14.05;;;4.72;;
56810;SDS011;42691;47.234;27.494;2022-10-17T05:07:10;10.23;;;5.55;;
56810;SDS011;42691;47.234;27.494;2022-10-17T05:09:36;17.13;;;6.10;;
56810;SDS011;42691;47.234;27.494;2022-10-17T05:12:01;9.95;;;6.13;;
56810;SDS011;42691;47.234;27.494;2022-10-17T05:14:27;14.38;;;7.03;;
56810;SDS011;42691;47.234;27.494;2022-10-17T05:16:53;13.18;;;4.00;;
56810;SDS011;42691;47.234;27.494;2022-10-17T05:19:18;11.57;;;4.13;;
56810;SDS011;42691;47.234;27.494;2022-10-17T05:21:43;7.88;;;4.00;;
56810;SDS011;42691;47.234;27.494;2022-10-17T05:24:10;9.05;;;4.82;;
56810;SDS011;42691;47.234;27.494;2022-10-17T05:26:37;17.05;;;6.40;;
56810;SDS011;42691;47.234;27.494;2022-10-17T05:29:03;11.57;;;5.70;;
56810;SDS011;42691;47.234;27.494;2022-10-17T05:31:29;10.65;;;5.50;;
56810;SDS011;42691;47.234;27.494;2022-10-17T05:33:58;11.10;;;6.07;;
56810;SDS011;42691;47.234;27.494;2022-10-17T05:36:24;9.57;;;5.68;;
56810;SDS011;42691;47.234;27.494;2022-10-17T05:38:50;11.88;;;6.50;;
56810;SDS011;42691;47.234;27.494;2022-10-17T05:41:16;12.20;;;8.55;;
56810;SDS011;42691;47.234;27.494;2022-10-17T05:43:43;11.65;;;7.20;;
56810;SDS011;42691;47.234;27.494;2022-10-17T05:46:09;12.05;;;5.82;;
56810;SDS011;42691;47.234;27.494;2022-10-17T05:48:35;8.32;;;4.70;;
56810;SDS011;42691;47.234;27.494;2022-10-17T05:51:01;10.70;;;5.47;;
56810;SDS011;42691;47.234;27.494;2022-10-17T05:53:32;11.35;;;6.25;;
56810;SDS011;42691;47.234;27.494;2022-10-17T05:56:00;20.92;;;5.85;;
56810;SDS011;42691;47.234;27.494;2022-10-17T05:58:27;17.80;;;6.95;;
56810;SDS011;42691;47.234;27.494;2022-10-17T06:00:59;10.15;;;6.15;;
56810;SDS011;42691;47.234;27.494;2022-10-17T06:03:26;10.57;;;5.75;;
56810;SDS011;42691;47.234;27.494;2022-10-17T06:05:52;19.00;;;7.93;;
56810;SDS011;42691;47.234;27.494;2022-10-17T06:08:18;18.48;;;7.57;;
56810;SDS011;42691;47.234;27.494;2022-10-17T06:10:46;14.45;;;8.30;;
56810;SDS011;42691;47.234;27.494;2022-10-17T06:13:13;14.43;;;8.70;;
56810;SDS011;42691;47.234;27.494;2022-10-17T06:15:38;22.98;;;10.10;;
56810;SDS011;42691;47.234;27.494;2022-10-17T06:18:04;17.00;;;9.68;;
56810;SDS011;42691;47.234;27.494;2022-10-17T06:20:29;14.20;;;8.95;;
56810;SDS011;42691;47.234;27.494;2022-10-17T06:22:55;13.10;;;8.55;;
56810;SDS011;42691;47.234;27.494;2022-10-17T06:25:20;10.75;;;7.82;;
56810;SDS011;42691;47.234;27.494;2022-10-17T06:27:45;12.60;;;8.50;;
56810;SDS011;42691;47.234;27.494;2022-10-17T06:30:11;18.67;;;7.72;;
56810;SDS011;42691;47.234;27.494;2022-10-17T06:32:36;12.23;;;7.40;;
56810;SDS011;42691;47.234;27.494;2022-10-17T06:35:02;12.80;;;7.22;;
56810;SDS011;42691;47.234;27.494;2022-10-17T06:37:31;8.05;;;6.03;;
56810;SDS011;42691;47.234;27.494;2022-10-17T06:39:57;10.50;;;5.05;;
56810;SDS011;42691;47.234;27.494;2022-10-17T06:42:23;17.15;;;8.00;;
56810;SDS011;42691;47.234;27.494;2022-10-17T06:44:49;16.52;;;6.70;;
56810;SDS011;42691;47.234;27.494;2022-10-17T06:47:14;9.95;;;4.63;;
56810;SDS011;42691;47.234;27.494;2022-10-17T06:49:40;8.30;;;5.50;;
56810;SDS011;42691;47.234;27.494;2022-10-17T06:52:05;31.35;;;7.30;;
56810;SDS011;42691;47.234;27.494;2022-10-17T06:54:31;62.67;;;8.68;;
56810;SDS011;42691;47.234;27.494;2022-10-17T06:56:56;13.27;;;5.50;;
56810;SDS011;42691;47.234;27.494;2022-10-17T06:59:22;10.90;;;6.60;;
56810;SDS011;42691;47.234;27.494;2022-10-17T07:01:47;10.55;;;5.15;;
56810;SDS011;42691;47.234;27.494;2022-10-17T07:04:13;13.48;;;6.78;;
56810;SDS011;42691;47.234;27.494;2022-10-17T07:06:38;10.15;;;6.60;;
56810;SDS011;42691;47.234;27.494;2022-10-17T07:09:04;13.57;;;6.65;;
56810;SDS011;42691;47.234;27.494;2022-10-17T07:11:31;12.32;;;7.72;;
56810;SDS011;42691;47.234;27.494;2022-10-17T07:13:58;11.82;;;7.60;;
56810;SDS011;42691;47.234;27.494;2022-10-17T07:16:23;13.52;;;7.80;;
56810;SDS011;42691;47.234;27.494;2022-10-17T07:18:49;18.98;;;9.93;;
56810;SDS011;42691;47.234;27.494;2022-10-17T07:21:15;10.45;;;6.65;;
56810;SDS011;42691;47.234;27.494;2022-10-17T07:23:41;16.02;;;7.55;;
56810;SDS011;42691;47.234;27.494;2022-10-17T07:26:07;17.58;;;8.15;;
56810;SDS011;42691;47.234;27.494;2022-10-17T07:28:36;13.38;;;5.70;;
56810;SDS011;42691;47.234;27.494;2022-10-17T07:31:04;14.48;;;5.80;;
56810;SDS011;42691;47.234;27.494;2022-10-17T07:33:30;12.80;;;6.43;;
56810;SDS011;42691;47.234;27.494;2022-10-17T07:35:57;11.60;;;7.53;;
56810;SDS011;42691;47.234;27.494;2022-10-17T07:38:23;9.57;;;5.68;;
56810;SDS011;42691;47.234;27.494;2022-10-17T07:40:55;9.15;;;5.35;;
56810;SDS011;42691;47.234;27.494;2022-10-17T07:43:22;14.43;;;6.27;;
56810;SDS011;42691;47.234;27.494;2022-10-17T07:45:48;14.13;;;5.38;;
56810;SDS011;42691;47.234;27.494;2022-10-17T07:48:14;15.07;;;7.45;;
56810;SDS011;42691;47.234;27.494;2022-10-17T07:50:40;8.25;;;5.57;;
56810;SDS011;42691;47.234;27.494;2022-10-17T07:53:05;9.38;;;6.55;;
56810;SDS011;42691;47.234;27.494;2022-10-17T07:55:30;9.43;;;6.15;;
56810;SDS011;42691;47.234;27.494;2022-10-17T07:57:56;10.90;;;5.20;;
56810;SDS011;42691;47.234;27.494;2022-10-17T08:00:22;13.45;;;8.50;;
56810;SDS011;42691;47.234;27.494;2022-10-17T08:02:47;12.25;;;9.35;;
56810;SDS011;42691;47.234;27.494;2022-10-17T08:05:13;18.33;;;6.75;;
56810;SDS011;42691;47.234;27.494;2022-10-17T08:07:38;11.65;;;6.35;;
56810;SDS011;42691;47.234;27.494;2022-10-17T08:10:05;8.68;;;5.35;;
56810;SDS011;42691;47.234;27.494;2022-10-17T08:12:31;8.98;;;6.75;;
56810;SDS011;42691;47.234;27.494;2022-10-17T08:14:58;11.25;;;4.30;;
56810;SDS011;42691;47.234;27.494;2022-10-17T08:17:27;7.63;;;4.35;;
56810;SDS011;42691;47.234;27.494;2022-10-17T08:19:53;5.22;;;4.10;;
56810;SDS011;42691;47.234;27.494;2022-10-17T08:22:18;8.43;;;3.97;;
56810;SDS011;42691;47.234;27.494;2022-10-17T08:24:44;6.70;;;4.18;;
56810;SDS011;42691;47.234;27.494;2022-10-17T08:27:10;8.75;;;3.95;;
56810;SDS011;42691;47.234;27.494;2022-10-17T08:29:40;9.80;;;4.90;;
56810;SDS011;42691;47.234;27.494;2022-10-17T08:32:06;5.82;;;3.90;;
56810;SDS011;42691;47.234;27.494;2022-10-17T08:34:33;5.20;;;3.58;;
56810;SDS011;42691;47.234;27.494;2022-10-17T08:36:59;7.82;;;5.38;;
56810;SDS011;42691;47.234;27.494;2022-10-17T08:39:24;9.25;;;4.10;;
56810;SDS011;42691;47.234;27.494;2022-10-17T08:47:00;10.70;;;4.95;;
56810;SDS011;42691;47.234;27.494;2022-10-17T08:49:36;13.02;;;5.85;;
56810;SDS011;42691;47.234;27.494;2022-10-17T08:52:04;11.07;;;4.87;;
56810;SDS011;42691;47.234;27.494;2022-10-17T08:54:42;8.98;;;4.28;;
56810;SDS011;42691;47.234;27.494;2022-10-17T08:57:12;13.02;;;5.38;;
56810;SDS011;42691;47.234;27.494;2022-10-17T08:59:39;21.05;;;7.93;;
56810;SDS011;42691;47.234;27.494;2022-10-17T09:07:41;207.50;;;40.70;;
56810;SDS011;42691;47.234;27.494;2022-10-17T09:10:17;83.88;;;18.67;;
56810;SDS011;42691;47.234;27.494;2022-10-17T09:16:00;6.40;;;3.72;;
56810;SDS011;42691;47.234;27.494;2022-10-17T09:18:30;12.65;;;4.00;;
56810;SDS011;42691;47.234;27.494;2022-10-17T09:21:17;10.18;;;4.18;;
56810;SDS011;42691;47.234;27.494;2022-10-17T09:23:51;8.52;;;3.50;;
56810;SDS011;42691;47.234;27.494;2022-10-17T09:26:23;12.45;;;4.25;;
56810;SDS011;42691;47.234;27.494;2022-10-17T09:28:53;8.43;;;4.82;;
56810;SDS011;42691;47.234;27.494;2022-10-17T09:31:24;9.13;;;4.07;;
56810;SDS011;42691;47.234;27.494;2022-10-17T09:33:53;7.10;;;4.63;;
56810;SDS011;42691;47.234;27.494;2022-10-17T09:36:34;5.43;;;2.72;;
56810;SDS011;42691;47.234;27.494;2022-10-17T09:41:48;8.15;;;3.97;;
56810;SDS011;42691;47.234;27.494;2022-10-17T09:46:58;5.45;;;2.60;;
56810;SDS011;42691;47.234;27.494;2022-10-17T09:49:32;10.10;;;4.73;;
56810;SDS011;42691;47.234;27.494;2022-10-17T09:52:00;9.23;;;3.88;;
56810;SDS011;42691;47.234;27.494;2022-10-17T09:54:31;10.93;;;5.70;;
56810;SDS011;42691;47.234;27.494;2022-10-17T09:57:05;15.50;;;6.60;;
56810;SDS011;42691;47.234;27.494;2022-10-17T10:04:53;7.75;;;3.33;;
56810;SDS011;42691;47.234;27.494;2022-10-17T10:07:21;7.38;;;3.83;;
56810;SDS011;42691;47.234;27.494;2022-10-17T10:09:48;6.70;;;4.07;;
56810;SDS011;42691;47.234;27.494;2022-10-17T10:12:17;8.60;;;4.53;;
56810;SDS011;42691;47.234;27.494;2022-10-17T10:14:45;11.00;;;5.18;;
56810;SDS011;42691;47.234;27.494;2022-10-17T10:17:44;46.42;;;25.85;;
56810;SDS011;42691;47.234;27.494;2022-10-17T10:20:25;54.40;;;28.98;;
56810;SDS011;42691;47.234;27.494;2022-10-17T10:23:12;11.80;;;5.38;;
56810;SDS011;42691;47.234;27.494;2022-10-17T10:25:48;4.72;;;2.92;;
56810;SDS011;42691;47.234;27.494;2022-10-17T10:28:17;5.72;;;3.35;;
56810;SDS011;42691;47.234;27.494;2022-10-17T10:30:47;6.07;;;3.42;;
56810;SDS011;42691;47.234;27.494;2022-10-17T10:33:15;13.50;;;9.70;;
56810;SDS011;42691;47.234;27.494;2022-10-17T10:35:50;19.80;;;6.05;;
56810;SDS011;42691;47.234;27.494;2022-10-17T10:38:20;16.17;;;7.60;;
56810;SDS011;42691;47.234;27.494;2022-10-17T10:40:47;8.43;;;5.60;;
56810;SDS011;42691;47.234;27.494;2022-10-17T10:43:24;7.10;;;4.00;;
56810;SDS011;42691;47.234;27.494;2022-10-17T10:45:57;10.70;;;6.15;;
56810;SDS011;42691;47.234;27.494;2022-10-17T10:48:24;9.70;;;5.35;;
56810;SDS011;42691;47.234;27.494;2022-10-17T10:51:02;18.20;;;8.82;;
56810;SDS011;42691;47.234;27.494;2022-10-17T10:53:47;11.98;;;8.00;;
56810;SDS011;42691;47.234;27.494;2022-10-17T10:56:25;9.82;;;5.05;;
56810;SDS011;42691;47.234;27.494;2022-10-17T11:01:50;13.60;;;7.28;;
56810;SDS011;42691;47.234;27.494;2022-10-17T11:07:22;8.35;;;4.45;;
56810;SDS011;42691;47.234;27.494;2022-10-17T11:10:07;9.68;;;3.60;;
56810;SDS011;42691;47.234;27.494;2022-10-17T11:12:49;19.10;;;9.97;;
56810;SDS011;42691;47.234;27.494;2022-10-17T11:19:27;10.40;;;7.18;;
56810;SDS011;42691;47.234;27.494;2022-10-17T11:27:09;4.72;;;4.18;;
56810;SDS011;42691;47.234;27.494;2022-10-17T11:29:38;8.57;;;3.85;;
56810;SDS011;42691;47.234;27.494;2022-10-17T11:32:11;4.25;;;3.42;;
56810;SDS011;42691;47.234;27.494;2022-10-17T11:34:41;8.68;;;4.28;;
56810;SDS011;42691;47.234;27.494;2022-10-17T11:37:15;10.75;;;5.70;;
56810;SDS011;42691;47.234;27.494;2022-10-17T11:42:56;10.38;;;5.22;;
56810;SDS011;42691;47.234;27.494;2022-10-17T11:45:27;10.98;;;4.43;;
56810;SDS011;42691;47.234;27.494;2022-10-17T11:47:59;9.60;;;3.85;;
56810;SDS011;42691;47.234;27.494;2022-10-17T11:50:36;6.30;;;4.03;;
56810;SDS011;42691;47.234;27.494;2022-10-17T11:53:16;10.52;;;5.53;;
56810;SDS011;42691;47.234;27.494;2022-10-17T11:55:56;5.65;;;3.45;;
56810;SDS011;42691;47.234;27.494;2022-10-17T12:04:00;6.05;;;3.97;;
56810;SDS011;42691;47.234;27.494;2022-10-17T12:17:37;7.13;;;3.67;;
56810;SDS011;42691;47.234;27.494;2022-10-17T12:20:27;5.95;;;3.47;;
56810;SDS011;42691;47.234;27.494;2022-10-17T12:25:35;8.77;;;3.88;;
56810;SDS011;42691;47.234;27.494;2022-10-17T12:28:13;10.95;;;3.85;;
56810;SDS011;42691;47.234;27.494;2022-10-17T12:30:52;11.98;;;4.18;;
56810;SDS011;42691;47.234;27.494;2022-10-17T12:33:30;8.85;;;3.58;;
56810;SDS011;42691;47.234;27.494;2022-10-17T12:38:46;7.07;;;4.65;;
56810;SDS011;42691;47.234;27.494;2022-10-17T12:41:15;6.47;;;3.35;;
56810;SDS011;42691;47.234;27.494;2022-10-17T12:44:01;7.00;;;3.22;;
56810;SDS011;42691;47.234;27.494;2022-10-17T12:59:54;11.98;;;6.80;;
56810;SDS011;42691;47.234;27.494;2022-10-17T13:02:20;7.03;;;4.28;;
56810;SDS011;42691;47.234;27.494;2022-10-17T13:04:49;12.32;;;5.05;;
56810;SDS011;42691;47.234;27.494;2022-10-17T13:07:30;5.57;;;3.85;;
56810;SDS011;42691;47.234;27.494;2022-10-17T13:09:58;5.47;;;3.60;;
56810;SDS011;42691;47.234;27.494;2022-10-17T13:12:29;8.57;;;3.58;;
56810;SDS011;42691;47.234;27.494;2022-10-17T13:14:58;9.23;;;3.75;;
56810;SDS011;42691;47.234;27.494;2022-10-17T13:17:28;9.43;;;3.88;;
56810;SDS011;42691;47.234;27.494;2022-10-17T13:19:58;13.40;;;4.97;;
56810;SDS011;42691;47.234;27.494;2022-10-17T13:22:28;8.90;;;4.38;;
56810;SDS011;42691;47.234;27.494;2022-10-17T13:25:08;4.97;;;3.45;;
56810;SDS011;42691;47.234;27.494;2022-10-17T13:27:38;7.95;;;4.25;;
56810;SDS011;42691;47.234;27.494;2022-10-17T13:32:52;10.63;;;4.45;;
56810;SDS011;42691;47.234;27.494;2022-10-17T13:35:22;7.88;;;4.38;;
56810;SDS011;42691;47.234;27.494;2022-10-17T13:37:59;6.40;;;3.65;;
56810;SDS011;42691;47.234;27.494;2022-10-17T13:40:28;4.97;;;3.10;;
56810;SDS011;42691;47.234;27.494;2022-10-17T13:42:55;6.18;;;2.47;;
56810;SDS011;42691;47.234;27.494;2022-10-17T13:45:32;7.53;;;3.45;;
56810;SDS011;42691;47.234;27.494;2022-10-17T13:47:59;8.32;;;3.60;;
56810;SDS011;42691;47.234;27.494;2022-10-17T13:50:35;7.85;;;2.92;;
56810;SDS011;42691;47.234;27.494;2022-10-17T13:53:07;6.68;;;3.90;;
56810;SDS011;42691;47.234;27.494;2022-10-17T13:56:41;13.70;;;4.03;;
56810;SDS011;42691;47.234;27.494;2022-10-17T13:58:50;7.97;;;4.38;;
56810;SDS011;42691;47.234;27.494;2022-10-17T14:01:17;5.65;;;3.28;;
56810;SDS011;42691;47.234;27.494;2022-10-17T14:03:44;10.70;;;5.07;;
56810;SDS011;42691;47.234;27.494;2022-10-17T14:08:37;7.72;;;4.05;;
56810;SDS011;42691;47.234;27.494;2022-10-17T14:14:21;26.05;;;8.25;;
56810;SDS011;42691;47.234;27.494;2022-10-17T14:16:49;7.38;;;4.32;;
56810;SDS011;42691;47.234;27.494;2022-10-17T14:19:26;8.30;;;4.95;;
56810;SDS011;42691;47.234;27.494;2022-10-17T14:21:52;13.30;;;6.75;;
56810;SDS011;42691;47.234;27.494;2022-10-17T14:26:47;14.32;;;6.82;;
56810;SDS011;42691;47.234;27.494;2022-10-17T14:29:21;15.88;;;7.35;;
56810;SDS011;42691;47.234;27.494;2022-10-17T14:32:27;20.30;;;6.82;;
56810;SDS011;42691;47.234;27.494;2022-10-17T14:34:50;11.82;;;6.05;;
56810;SDS011;42691;47.234;27.494;2022-10-17T14:37:51;21.02;;;8.52;;
56810;SDS011;42691;47.234;27.494;2022-10-17T14:40:17;11.68;;;7.03;;
56810;SDS011;42691;47.234;27.494;2022-10-17T14:42:44;14.75;;;8.68;;
56810;SDS011;42691;47.234;27.494;2022-10-17T14:45:12;29.95;;;16.80;;
56810;SDS011;42691;47.234;27.494;2022-10-17T14:47:49;23.98;;;14.88;;
56810;SDS011;42691;47.234;27.494;2022-10-17T14:55:35;26.38;;;17.10;;
56810;SDS011;42691;47.234;27.494;2022-10-17T14:58:23;32.97;;;18.75;;
56810;SDS011;42691;47.234;27.494;2022-10-17T15:00:53;35.88;;;20.40;;
56810;SDS011;42691;47.234;27.494;2022-10-17T15:03:19;34.70;;;18.00;;
56810;SDS011;42691;47.234;27.494;2022-10-17T15:05:45;31.85;;;19.33;;
56810;SDS011;42691;47.234;27.494;2022-10-17T15:08:12;23.00;;;15.30;;
56810;SDS011;42691;47.234;27.494;2022-10-17T15:10:40;35.67;;;19.75;;
56810;SDS011;42691;47.234;27.494;2022-10-17T15:13:06;37.33;;;17.38;;
56810;SDS011;42691;47.234;27.494;2022-10-17T15:15:33;23.77;;;14.45;;
56810;SDS011;42691;47.234;27.494;2022-10-17T15:17:59;29.40;;;15.52;;
56810;SDS011;42691;47.234;27.494;2022-10-17T15:20:25;34.83;;;21.27;;
56810;SDS011;42691;47.234;27.494;2022-10-17T15:22:53;28.45;;;20.98;;
56810;SDS011;42691;47.234;27.494;2022-10-17T15:25:19;41.42;;;22.95;;
56810;SDS011;42691;47.234;27.494;2022-10-17T15:27:45;27.80;;;18.85;;
56810;SDS011;42691;47.234;27.494;2022-10-17T15:30:19;38.38;;;21.00;;
56810;SDS011;42691;47.234;27.494;2022-10-17T15:32:50;29.85;;;17.92;;
56810;SDS011;42691;47.234;27.494;2022-10-17T15:35:16;30.80;;;16.65;;
56810;SDS011;42691;47.234;27.494;2022-10-17T15:37:43;30.10;;;14.75;;
56810;SDS011;42691;47.234;27.494;2022-10-17T15:40:16;22.85;;;14.50;;
56810;SDS011;42691;47.234;27.494;2022-10-17T15:42:55;21.50;;;12.50;;
56810;SDS011;42691;47.234;27.494;2022-10-17T15:45:21;25.83;;;10.82;;
56810;SDS011;42691;47.234;27.494;2022-10-17T15:47:51;16.63;;;12.90;;
56810;SDS011;42691;47.234;27.494;2022-10-17T15:50:23;19.67;;;9.50;;
56810;SDS011;42691;47.234;27.494;2022-10-17T15:52:48;22.15;;;11.93;;
56810;SDS011;42691;47.234;27.494;2022-10-17T15:55:17;20.98;;;10.35;;
56810;SDS011;42691;47.234;27.494;2022-10-17T15:57:44;16.15;;;10.82;;
56810;SDS011;42691;47.234;27.494;2022-10-17T16:00:15;14.50;;;10.90;;
56810;SDS011;42691;47.234;27.494;2022-10-17T16:02:44;26.83;;;12.90;;
56810;SDS011;42691;47.234;27.494;2022-10-17T16:05:17;18.83;;;9.93;;
56810;SDS011;42691;47.234;27.494;2022-10-17T16:07:47;14.00;;;10.65;;
56810;SDS011;42691;47.234;27.494;2022-10-17T16:10:13;18.15;;;11.30;;
56810;SDS011;42691;47.234;27.494;2022-10-17T16:12:40;22.65;;;13.25;;
56810;SDS011;42691;47.234;27.494;2022-10-17T16:15:07;14.57;;;10.23;;
56810;SDS011;42691;47.234;27.494;2022-10-17T16:17:47;72.65;;;15.98;;
56810;SDS011;42691;47.234;27.494;2022-10-17T16:20:13;27.30;;;11.38;;
56810;SDS011;42691;47.234;27.494;2022-10-17T16:22:39;23.02;;;9.32;;
56810;SDS011;42691;47.234;27.494;2022-10-17T16:25:09;22.20;;;8.13;;
56810;SDS011;42691;47.234;27.494;2022-10-17T16:27:44;14.95;;;8.85;;
56810;SDS011;42691;47.234;27.494;2022-10-17T16:30:10;11.88;;;6.32;;
56810;SDS011;42691;47.234;27.494;2022-10-17T16:32:36;18.52;;;6.90;;
56810;SDS011;42691;47.234;27.494;2022-10-17T16:35:02;16.55;;;6.90;;
56810;SDS011;42691;47.234;27.494;2022-10-17T16:37:28;23.38;;;6.95;;
56810;SDS011;42691;47.234;27.494;2022-10-17T16:39:54;13.52;;;6.07;;
56810;SDS011;42691;47.234;27.494;2022-10-17T16:42:19;63.20;;;16.83;;
56810;SDS011;42691;47.234;27.494;2022-10-17T16:44:45;36.78;;;10.18;;
56810;SDS011;42691;47.234;27.494;2022-10-17T16:47:11;57.33;;;14.07;;
56810;SDS011;42691;47.234;27.494;2022-10-17T16:49:36;33.78;;;9.05;;
56810;SDS011;42691;47.234;27.494;2022-10-17T16:52:02;49.55;;;14.95;;
56810;SDS011;42691;47.234;27.494;2022-10-17T16:54:28;22.75;;;8.25;;